createdAt,value
2023-02-02T00:02:03.842Z,34.40
2023-02-02T00:12:13.064Z,34.00
2023-02-02T00:22:19.728Z,34.50
2023-02-02T00:32:28.054Z,34.60
2023-02-02T00:42:34.904Z,34.80
2023-02-02T00:52:46.378Z,34.60
2023-02-02T02:16:41.766Z,35.10
2023-02-02T02:28:04.758Z,36.00
2023-02-02T02:38:30.240Z,36.30
2023-02-02T03:00:26.554Z,37.20
2023-02-02T03:10:36.405Z,37.30
2023-02-02T03:21:23.817Z,37.40
2023-02-02T03:31:55.922Z,37.40
2023-02-02T03:42:10.037Z,37.30
2023-02-02T03:52:18.068Z,37.30
2023-02-02T04:02:34.470Z,37.10
2023-02-02T05:24:39.692Z,36.70
2023-02-02T05:34:50.328Z,37.00
2023-02-02T07:26:20.253Z,38.80
2023-02-02T15:34:17.083Z,35.40
2023-02-02T16:19:56.125Z,35.50
2023-02-02T17:05:07.999Z,32.30
2023-02-02T17:15:38.104Z,32.60
2023-02-02T17:25:48.735Z,31.80
2023-02-02T17:35:59.810Z,32.60
2023-02-02T17:58:37.733Z,32.80
2023-02-02T18:19:29.037Z,32.90
2023-02-02T18:29:37.006Z,32.50
2023-02-02T18:40:12.641Z,32.50
2023-02-02T18:50:25.439Z,31.90
2023-02-02T19:01:14.109Z,31.90
2023-02-02T19:11:30.148Z,31.90
2023-02-02T19:21:38.746Z,32.00
2023-02-02T19:31:56.296Z,32.50
2023-02-02T19:54:56.952Z,37.50
2023-02-02T20:17:47.885Z,35.50
2023-02-02T20:28:58.008Z,36.00
2023-02-02T20:40:55.519Z,35.20
2023-02-02T20:51:38.717Z,33.70
2023-02-02T21:02:18.120Z,34.70
2023-02-02T21:35:20.890Z,35.00
2023-02-02T21:46:29.787Z,34.80
2023-02-02T22:08:25.669Z,36.00
2023-02-02T22:18:37.112Z,36.40
2023-02-02T22:28:48.427Z,36.40
2023-02-02T22:38:55.762Z,35.70
2023-02-02T22:49:04.229Z,35.10
2023-02-02T22:59:11.006Z,34.70
2023-02-02T23:09:19.413Z,34.30
2023-02-02T23:19:26.192Z,34.70
2023-02-02T23:29:34.510Z,35.40
2023-02-02T23:52:02.977Z,36.20
